SKW24 KDEN-KLAX
Flight info
| Callsign | SKW24 |
|---|---|
| Flight time | N/A |
| Altitude | 34000 |
| Route | BAYLR6 TEHRU JASSE Q90 DNERO ANJLL4 |
| Aircraft | E75L/M-SDE3GILORVW/S |
Departure
| Time | 2026-05-08 02:00 |
|---|---|
| Airport | Denver International Airport (KDEN) |
Arrival
| Time | N/A |
|---|---|
| Airport | Los Angeles International Airport (KLAX) |
| Time | Latitude | Longitude | Altitude | Speed | Heading |
|---|---|---|---|---|---|
| 2026-05-08 01:29 | 39.85440 | -104.67600 | 5381 ft | 0 kts | 156° |
| 2026-05-08 01:49 | 39.85441 | -104.67601 | 5384 ft | 1 kts | 156° |
| 2026-05-08 01:49 | 39.85455 | -104.67609 | 5383 ft | 3 kts | 156° |
| 2026-05-08 01:50 | 39.85474 | -104.67619 | 5383 ft | 3 kts | 156° |
| 2026-05-08 01:50 | 39.85492 | -104.67629 | 5382 ft | 3 kts | 156° |
| 2026-05-08 01:50 | 39.85511 | -104.67640 | 5384 ft | 3 kts | 156° |
| 2026-05-08 01:50 | 39.85522 | -104.67647 | 5384 ft | 0 kts | 156° |
| 2026-05-08 01:54 | 39.85513 | -104.67647 | 5382 ft | 3 kts | 195° |
| 2026-05-08 01:54 | 39.85524 | -104.67694 | 5381 ft | 13 kts | 342° |
| 2026-05-08 01:55 | 39.85598 | -104.67747 | 5383 ft | 6 kts | 278° |
| 2026-05-08 01:55 | 39.85594 | -104.67864 | 5384 ft | 18 kts | 271° |
| 2026-05-08 01:55 | 39.85596 | -104.68027 | 5384 ft | 18 kts | 270° |
| 2026-05-08 01:55 | 39.85597 | -104.68196 | 5384 ft | 19 kts | 270° |
| 2026-05-08 01:56 | 39.85591 | -104.68366 | 5374 ft | 17 kts | 242° |
| 2026-05-08 01:56 | 39.85501 | -104.68403 | 5371 ft | 13 kts | 180° |
| 2026-05-08 01:56 | 39.85407 | -104.68404 | 5372 ft | 14 kts | 180° |
| 2026-05-08 01:56 | 39.85308 | -104.68402 | 5372 ft | 14 kts | 178° |
| 2026-05-08 01:57 | 39.85219 | -104.68419 | 5375 ft | 12 kts | 226° |
| 2026-05-08 01:57 | 39.85206 | -104.68563 | 5367 ft | 19 kts | 269° |
| 2026-05-08 01:57 | 39.85202 | -104.68755 | 5360 ft | 23 kts | 268° |
| 2026-05-08 01:57 | 39.85198 | -104.68984 | 5351 ft | 27 kts | 269° |
| 2026-05-08 01:58 | 39.85197 | -104.69158 | 5346 ft | 20 kts | 272° |
| 2026-05-08 01:58 | 39.85200 | -104.69298 | 5342 ft | 13 kts | 271° |
| 2026-05-08 01:58 | 39.85202 | -104.69428 | 5335 ft | 8 kts | 271° |
| 2026-05-08 01:58 | 39.85203 | -104.69496 | 5334 ft | 0 kts | 270° |
| 2026-05-08 01:59 | 39.85203 | -104.69498 | 5334 ft | 2 kts | 270° |
| 2026-05-08 01:59 | 39.85204 | -104.69556 | 5331 ft | 12 kts | 271° |
| 2026-05-08 01:59 | 39.85221 | -104.69658 | 5334 ft | 10 kts | 326° |
| 2026-05-08 01:59 | 39.85303 | -104.69659 | 5333 ft | 33 kts | 0° |
| 2026-05-08 02:00 | 39.85787 | -104.69653 | 5339 ft | 107 kts | 1° |
| 2026-05-08 02:00 | 39.86765 | -104.69639 | 5379 ft | 167 kts | 0° |
| 2026-05-08 02:00 | 39.87992 | -104.69642 | 6114 ft | 188 kts | 356° |
| 2026-05-08 02:00 | 39.89403 | -104.69680 | 6763 ft | 216 kts | 357° |
| 2026-05-08 02:01 | 39.90937 | -104.70064 | 7291 ft | 241 kts | 330° |
| 2026-05-08 02:01 | 39.92300 | -104.71254 | 8552 ft | 221 kts | 329° |
| 2026-05-08 02:01 | 39.93691 | -104.71790 | 10148 ft | 197 kts | 333° |
| 2026-05-08 02:01 | 39.94589 | -104.72985 | 11249 ft | 182 kts | 296° |
| 2026-05-08 02:02 | 39.94426 | -104.74572 | 11927 ft | 188 kts | 247° |
| 2026-05-08 02:02 | 39.93562 | -104.75769 | 13011 ft | 181 kts | 220° |
| 2026-05-08 02:02 | 39.93069 | -104.76114 | 13394 ft | 186 kts | 211° |
| 2026-05-08 02:02 | 39.92371 | -104.76362 | 13668 ft | 199 kts | 193° |
| 2026-05-08 02:03 | 39.90869 | -104.76385 | 13921 ft | 237 kts | 162° |
| 2026-05-08 02:03 | 39.90665 | -104.76286 | 13974 ft | 241 kts | 153° |